createdAt,value
2017-09-24T00:00:34.258Z,1016.39
2017-09-24T00:01:14.796Z,1016.41
2017-09-24T00:01:55.335Z,1016.42
2017-09-24T00:02:35.868Z,1016.39
2017-09-24T00:03:16.406Z,1016.4
2017-09-24T00:03:56.935Z,1016.37
2017-09-24T00:04:37.466Z,1016.39
2017-09-24T00:05:18.003Z,1016.38
2017-09-24T00:05:58.558Z,1016.33
2017-09-24T00:06:39.092Z,1016.34
2017-09-24T00:07:19.616Z,1016.34
2017-09-24T00:08:00.147Z,1016.35
2017-09-24T00:08:40.687Z,1016.32
2017-09-24T00:09:21.225Z,1016.35
2017-09-24T00:10:01.759Z,1016.35
2017-09-24T00:10:42.289Z,1016.33
2017-09-24T00:11:22.815Z,1016.31
2017-09-24T00:12:03.381Z,1016.32
2017-09-24T00:12:43.917Z,1016.3
2017-09-24T00:13:24.447Z,1016.31
2017-09-24T00:14:04.973Z,1016.28
2017-09-24T00:14:45.514Z,1016.28
2017-09-24T00:15:26.050Z,1016.3
2017-09-24T00:16:06.586Z,1016.32
2017-09-24T00:16:47.130Z,1016.3
2017-09-24T00:17:27.665Z,1016.34
2017-09-24T00:18:08.207Z,1016.3
2017-09-24T00:18:48.747Z,1016.32
2017-09-24T00:19:29.282Z,1016.27
2017-09-24T00:20:09.825Z,1016.3
2017-09-24T00:20:50.355Z,1016.34
2017-09-24T00:21:30.886Z,1016.32
2017-09-24T00:22:11.427Z,1016.33
2017-09-24T00:22:51.979Z,1016.34
2017-09-24T00:23:32.511Z,1016.34
2017-09-24T00:24:13.051Z,1016.37
2017-09-24T00:24:53.590Z,1016.37
2017-09-24T00:25:34.142Z,1016.36
2017-09-24T00:26:14.684Z,1016.37
2017-09-24T00:26:55.221Z,1016.37
2017-09-24T00:27:35.747Z,1016.36
2017-09-24T00:28:16.292Z,1016.34
2017-09-24T00:28:56.825Z,1016.38
2017-09-24T00:29:37.358Z,1016.39
2017-09-24T00:30:17.894Z,1016.36
2017-09-24T00:30:58.428Z,1016.38
2017-09-24T00:31:38.956Z,1016.39
2017-09-24T00:32:19.500Z,1016.36
2017-09-24T00:33:00.030Z,1016.37
2017-09-24T00:33:40.564Z,1016.33
2017-09-24T00:34:21.098Z,1016.4
2017-09-24T00:35:01.645Z,1016.37
2017-09-24T00:35:42.156Z,1016.37
2017-09-24T00:36:22.699Z,1016.36
2017-09-24T00:37:03.232Z,1016.39
2017-09-24T00:37:43.764Z,1016.37
2017-09-24T00:38:24.299Z,1016.39
2017-09-24T00:39:04.841Z,1016.35
2017-09-24T00:39:45.381Z,1016.34
2017-09-24T00:40:25.917Z,1016.36
2017-09-24T00:41:06.445Z,1016.35
2017-09-24T00:41:46.970Z,1016.36
2017-09-24T00:43:46.979Z,1016.32
2017-09-24T00:44:27.520Z,1016.31
2017-09-24T00:45:08.050Z,1016.29
2017-09-24T00:45:48.572Z,1016.28
2017-09-24T00:46:29.107Z,1016.31
2017-09-24T00:47:09.643Z,1016.28
2017-09-24T00:47:50.183Z,1016.27
2017-09-24T00:48:30.726Z,1016.24
2017-09-24T00:49:11.252Z,1016.26
2017-09-24T00:49:51.785Z,1016.22
2017-09-24T00:50:32.321Z,1016.24
2017-09-24T00:51:12.855Z,1016.25
2017-09-24T00:51:53.393Z,1016.2
2017-09-24T00:52:33.917Z,1016.22
2017-09-24T00:53:14.459Z,1016.19
2017-09-24T00:53:54.986Z,1016.2
2017-09-24T00:54:35.524Z,1016.19
2017-09-24T00:55:16.046Z,1016.18
2017-09-24T00:55:56.578Z,1016.21
2017-09-24T00:56:37.106Z,1016.19
2017-09-24T00:57:17.635Z,1016.14
2017-09-24T00:57:58.165Z,1016.2
2017-09-24T00:58:38.701Z,1016.18
2017-09-24T00:59:19.240Z,1016.2
2017-09-24T00:59:59.778Z,1016.19
2017-09-24T01:00:40.311Z,1016.19
2017-09-24T01:01:20.844Z,1016.19
2017-09-24T01:02:01.363Z,1016.18
2017-09-24T01:02:41.897Z,1016.19
2017-09-24T01:03:22.433Z,1016.18
2017-09-24T01:04:02.963Z,1016.18
2017-09-24T01:04:43.498Z,1016.17
2017-09-24T01:05:24.034Z,1016.15
2017-09-24T01:06:04.564Z,1016.2
2017-09-24T01:06:45.094Z,1016.21
2017-09-24T01:07:25.633Z,1016.21
2017-09-24T01:08:06.168Z,1016.22
2017-09-24T01:08:46.701Z,1016.22
2017-09-24T01:09:27.232Z,1016.24
2017-09-24T01:10:07.767Z,1016.24
2017-09-24T01:10:48.299Z,1016.23
2017-09-24T01:11:28.834Z,1016.22
2017-09-24T01:12:09.369Z,1016.22
2017-09-24T01:12:49.902Z,1016.22
2017-09-24T01:13:30.440Z,1016.22
2017-09-24T01:14:10.961Z,1016.22
2017-09-24T01:14:51.486Z,1016.2
2017-09-24T01:15:32.023Z,1016.23
2017-09-24T01:16:12.550Z,1016.22
2017-09-24T01:16:53.079Z,1016.23
2017-09-24T01:17:33.608Z,1016.24
2017-09-24T01:18:14.137Z,1016.22
2017-09-24T01:18:54.659Z,1016.21
2017-09-24T01:19:35.192Z,1016.2
2017-09-24T01:20:15.715Z,1016.2
2017-09-24T01:20:56.247Z,1016.19
2017-09-24T01:21:36.784Z,1016.2
2017-09-24T01:22:17.322Z,1016.23
2017-09-24T01:22:57.850Z,1016.23
2017-09-24T01:23:38.377Z,1016.25
2017-09-24T01:24:18.901Z,1016.21
2017-09-24T01:24:59.442Z,1016.2
2017-09-24T01:25:39.964Z,1016.21
2017-09-24T01:26:20.496Z,1016.19
2017-09-24T01:27:01.029Z,1016.19
2017-09-24T01:27:41.564Z,1016.18
2017-09-24T01:28:22.091Z,1016.16
2017-09-24T01:29:02.623Z,1016.18
2017-09-24T01:29:43.146Z,1016.2
2017-09-24T01:30:23.674Z,1016.18
2017-09-24T01:31:04.210Z,1016.18
2017-09-24T01:31:44.744Z,1016.15
2017-09-24T01:32:25.267Z,1016.19
2017-09-24T01:33:05.781Z,1016.17
2017-09-24T01:33:46.323Z,1016.15
2017-09-24T01:34:26.851Z,1016.16
2017-09-24T01:35:07.416Z,1016.16
2017-09-24T01:35:47.943Z,1016.11
2017-09-24T01:36:28.470Z,1016.13
2017-09-24T01:37:08.999Z,1016.12
2017-09-24T01:37:49.519Z,1016.1
2017-09-24T01:38:30.052Z,1016.1
2017-09-24T01:39:10.583Z,1016.1
2017-09-24T01:39:51.110Z,1016.09
2017-09-24T01:40:31.644Z,1016.1
2017-09-24T01:41:12.169Z,1016.07
2017-09-24T01:41:52.704Z,1016.11
2017-09-24T01:42:40.015Z,1016.07
2017-09-24T01:43:20.549Z,1016.09
2017-09-24T01:44:01.075Z,1016.08
2017-09-24T01:44:41.600Z,1016.09
2017-09-24T01:45:22.132Z,1016.06
2017-09-24T01:46:02.665Z,1016.08
2017-09-24T01:46:43.197Z,1016.09
2017-09-24T01:47:23.732Z,1016.07
2017-09-24T01:48:04.266Z,1016.1
2017-09-24T01:48:44.794Z,1016.1
2017-09-24T01:49:25.325Z,1016.08
2017-09-24T01:50:05.855Z,1016.08
2017-09-24T01:50:46.386Z,1016.11
2017-09-24T01:51:26.914Z,1016.08
2017-09-24T01:52:07.446Z,1016.1
2017-09-24T01:52:47.977Z,1016.12
2017-09-24T01:53:28.516Z,1016.1
2017-09-24T01:54:09.060Z,1016.1
2017-09-24T01:54:49.586Z,1016.09
2017-09-24T01:55:30.115Z,1016.11
2017-09-24T01:56:10.643Z,1016.09
2017-09-24T01:56:51.168Z,1016.1
2017-09-24T01:57:31.733Z,1016.1
2017-09-24T01:58:12.232Z,1016.09
2017-09-24T01:58:52.761Z,1016.05
2017-09-24T01:59:33.291Z,1016.08
2017-09-24T02:00:13.823Z,1016.09
2017-09-24T02:00:54.358Z,1016.05
2017-09-24T02:01:34.882Z,1016.03
2017-09-24T02:02:15.418Z,1016.06
2017-09-24T02:02:55.953Z,1016.08
2017-09-24T02:03:36.475Z,1016.07
2017-09-24T02:04:17.011Z,1016.07
2017-09-24T02:04:57.548Z,1016.08
2017-09-24T02:05:38.079Z,1016.1
2017-09-24T02:06:18.613Z,1016.08
2017-09-24T02:06:59.142Z,1016.08
2017-09-24T02:07:39.673Z,1016.06
2017-09-24T02:08:20.221Z,1016.04
2017-09-24T02:09:00.754Z,1016.05
2017-09-24T02:09:41.268Z,1016.06
2017-09-24T02:10:21.801Z,1016.04
2017-09-24T02:11:02.337Z,1016.04
2017-09-24T02:11:42.873Z,1016.03
2017-09-24T02:12:23.408Z,1016.01
2017-09-24T02:13:03.937Z,1016.02
2017-09-24T02:13:44.469Z,1016.02
2017-09-24T02:14:25.003Z,1016.03
2017-09-24T02:15:05.540Z,1016.05
2017-09-24T02:15:46.075Z,1016.01
2017-09-24T02:16:26.606Z,1016.02
2017-09-24T02:17:07.141Z,1016.04
2017-09-24T02:17:47.671Z,1016.02
2017-09-24T02:18:28.206Z,1016.03
2017-09-24T02:19:08.743Z,1016.07
2017-09-24T02:19:49.278Z,1016.04
2017-09-24T02:20:29.802Z,1016.04
2017-09-24T02:21:10.336Z,1016.06
2017-09-24T02:21:50.851Z,1016.04
2017-09-24T02:22:31.381Z,1016.09
2017-09-24T02:23:11.903Z,1016.08
2017-09-24T02:23:52.447Z,1016.08
2017-09-24T02:25:51.621Z,1016.13
2017-09-24T02:26:32.150Z,1016.14
2017-09-24T02:27:12.682Z,1016.12
2017-09-24T02:27:53.217Z,1016.12
2017-09-24T02:28:33.751Z,1016.13
2017-09-24T02:29:14.283Z,1016.15
2017-09-24T02:29:54.812Z,1016.18
2017-09-24T02:30:35.342Z,1016.13
2017-09-24T02:31:15.873Z,1016.15
2017-09-24T02:31:56.395Z,1016.16
2017-09-24T02:32:36.927Z,1016.14
2017-09-24T02:33:17.459Z,1016.15
2017-09-24T02:33:57.992Z,1016.17
2017-09-24T02:34:38.521Z,1016.17
2017-09-24T02:35:19.048Z,1016.14
2017-09-24T02:35:59.574Z,1016.15
2017-09-24T02:36:40.110Z,1016.14
2017-09-24T02:37:20.638Z,1016.13
2017-09-24T02:38:01.149Z,1016.12
2017-09-24T02:38:41.679Z,1016.11
2017-09-24T02:39:22.205Z,1016.17
2017-09-24T02:40:02.740Z,1016.14
2017-09-24T02:40:43.265Z,1016.11
2017-09-24T02:41:23.787Z,1016.15
2017-09-24T02:42:04.319Z,1016.13
2017-09-24T02:42:44.852Z,1016.13
2017-09-24T02:43:25.416Z,1016.13
2017-09-24T02:44:05.960Z,1016.11
2017-09-24T02:44:46.495Z,1016.12
2017-09-24T02:45:27.032Z,1016.12
2017-09-24T02:46:07.565Z,1016.09
2017-09-24T02:46:48.098Z,1016.07
2017-09-24T02:47:28.634Z,1016.11
2017-09-24T02:48:09.163Z,1016.07
2017-09-24T02:48:49.704Z,1016.1
2017-09-24T02:49:30.236Z,1016.09
2017-09-24T02:50:10.764Z,1016.08
2017-09-24T02:50:51.291Z,1016.09
2017-09-24T02:51:32.698Z,1016.08
2017-09-24T02:52:13.229Z,1016.1
2017-09-24T02:52:53.758Z,1016.08
2017-09-24T02:53:34.291Z,1016.05
2017-09-24T02:54:14.817Z,1016.05
2017-09-24T02:54:55.380Z,1016.04
2017-09-24T02:55:35.919Z,1016.07
2017-09-24T02:56:16.457Z,1016.04
2017-09-24T02:56:56.998Z,1016.05
2017-09-24T02:57:37.519Z,1016.05
2017-09-24T02:58:18.045Z,1016.07
2017-09-24T02:58:58.574Z,1016.11
2017-09-24T02:59:39.097Z,1016.08
2017-09-24T03:00:19.628Z,1016.09
2017-09-24T03:01:00.165Z,1016.09
2017-09-24T03:01:40.700Z,1016.07
2017-09-24T03:02:21.565Z,1016.08
2017-09-24T03:03:02.097Z,1016.1
2017-09-24T03:03:42.621Z,1016.11
2017-09-24T03:04:23.146Z,1016.07
2017-09-24T03:05:03.686Z,1016.1
2017-09-24T03:05:44.216Z,1016.14
2017-09-24T03:06:24.756Z,1016.11
2017-09-24T03:07:05.290Z,1016.13
2017-09-24T03:07:45.820Z,1016.13
2017-09-24T03:08:26.347Z,1016.11
2017-09-24T03:09:06.876Z,1016.11
2017-09-24T03:09:47.418Z,1016.09
2017-09-24T03:10:27.948Z,1016.11
2017-09-24T03:11:08.485Z,1016.1
2017-09-24T03:11:49.012Z,1016.12
2017-09-24T03:12:29.531Z,1016.11
2017-09-24T03:13:10.254Z,1016.1
2017-09-24T03:13:50.777Z,1016.12
2017-09-24T03:14:31.303Z,1016.14
2017-09-24T03:15:11.821Z,1016.14
2017-09-24T03:15:52.354Z,1016.15
2017-09-24T03:16:32.892Z,1016.15
2017-09-24T03:17:13.416Z,1016.15
2017-09-24T03:17:53.947Z,1016.14
2017-09-24T03:18:34.491Z,1016.15
2017-09-24T03:19:15.017Z,1016.15
2017-09-24T03:19:55.553Z,1016.14
2017-09-24T03:20:36.086Z,1016.16
2017-09-24T03:21:16.614Z,1016.17
2017-09-24T03:21:57.237Z,1016.15
2017-09-24T03:22:37.796Z,1016.14
2017-09-24T03:23:18.324Z,1016.14
2017-09-24T03:23:58.858Z,1016.16
2017-09-24T03:24:39.715Z,1016.19
2017-09-24T03:25:20.258Z,1016.21
2017-09-24T03:26:00.797Z,1016.22
2017-09-24T03:26:41.332Z,1016.19
2017-09-24T03:27:21.903Z,1016.21
2017-09-24T03:28:02.428Z,1016.21
2017-09-24T03:28:42.958Z,1016.21
2017-09-24T03:29:23.506Z,1016.14
2017-09-24T03:30:04.078Z,1016.21
2017-09-24T03:30:44.608Z,1016.19
2017-09-24T03:31:25.186Z,1016.16
2017-09-24T03:32:05.726Z,1016.14
2017-09-24T03:32:46.262Z,1016.19
2017-09-24T03:33:26.792Z,1016.16
2017-09-24T03:34:07.329Z,1016.19
2017-09-24T03:34:47.869Z,1016.16
2017-09-24T03:35:28.393Z,1016.18
2017-09-24T03:36:08.919Z,1016.16
2017-09-24T03:36:49.463Z,1016.14
2017-09-24T03:37:29.995Z,1016.14
2017-09-24T03:38:10.533Z,1016.15
2017-09-24T03:38:51.072Z,1016.18
2017-09-24T03:39:31.612Z,1016.18
2017-09-24T03:40:12.150Z,1016.2
2017-09-24T03:40:52.683Z,1016.16
2017-09-24T03:41:33.219Z,1016.13
2017-09-24T03:42:13.831Z,1016.14
2017-09-24T03:42:54.363Z,1016.09
2017-09-24T03:43:34.891Z,1016.09
2017-09-24T03:44:15.424Z,1016.08
2017-09-24T03:44:55.959Z,1016.09
2017-09-24T03:45:36.500Z,1016.04
2017-09-24T03:46:17.166Z,1016.06
2017-09-24T03:46:57.716Z,1016.07
2017-09-24T03:47:38.243Z,1016.05
2017-09-24T03:48:19.041Z,1016.03
2017-09-24T03:48:59.568Z,1016.02
2017-09-24T03:49:40.103Z,1016.01
2017-09-24T03:50:20.636Z,1016.01
2017-09-24T03:51:01.165Z,1016.01
2017-09-24T03:51:41.687Z,1015.99
2017-09-24T03:52:22.225Z,1016.02
2017-09-24T03:53:02.753Z,1016.04
2017-09-24T03:53:43.284Z,1016.04
2017-09-24T03:54:23.871Z,1016.05
2017-09-24T03:55:04.406Z,1016
2017-09-24T03:55:44.939Z,1016.05
2017-09-24T03:56:25.464Z,1016.04
2017-09-24T03:57:05.989Z,1016.03
2017-09-24T03:57:46.502Z,1016.05
2017-09-24T03:58:27.050Z,1016.08
2017-09-24T03:59:07.584Z,1016.05
2017-09-24T03:59:48.117Z,1016.05
2017-09-24T04:00:28.647Z,1016.07
2017-09-24T04:01:09.193Z,1016.05
2017-09-24T04:01:49.723Z,1016.08
2017-09-24T04:02:30.258Z,1016.07
2017-09-24T04:03:10.792Z,1016.04
2017-09-24T04:03:52.007Z,1016.03
2017-09-24T04:04:32.542Z,1016.05
2017-09-24T04:05:13.077Z,1016.03
2017-09-24T04:05:53.614Z,1016.07
2017-09-24T04:06:34.148Z,1016.05
2017-09-24T04:07:14.677Z,1016.06
2017-09-24T04:07:55.203Z,1016.04
2017-09-24T04:08:35.764Z,1016.06
2017-09-24T04:09:16.302Z,1016.08
2017-09-24T04:09:56.837Z,1016.07
2017-09-24T04:10:37.368Z,1016.06
2017-09-24T04:11:17.897Z,1016.06
2017-09-24T04:11:58.423Z,1016.04
2017-09-24T04:12:38.956Z,1016.03
2017-09-24T04:13:19.488Z,1016.03
2017-09-24T04:14:00.017Z,1016.06
2017-09-24T04:14:40.545Z,1016.08
2017-09-24T04:15:21.080Z,1016.09
2017-09-24T04:16:01.920Z,1016.11
2017-09-24T04:16:42.461Z,1016.14
2017-09-24T04:17:22.997Z,1016.13
2017-09-24T04:18:03.536Z,1016.13
2017-09-24T04:18:44.074Z,1016.12
2017-09-24T04:19:24.595Z,1016.11
2017-09-24T04:20:05.113Z,1016.15
2017-09-24T04:20:45.638Z,1016.13
2017-09-24T04:21:26.166Z,1016.12
2017-09-24T04:22:06.695Z,1016.11
2017-09-24T04:22:47.225Z,1016.11
2017-09-24T04:23:27.762Z,1016.11
2017-09-24T04:24:08.290Z,1016.14
2017-09-24T04:24:49.376Z,1016.13
2017-09-24T04:25:29.911Z,1016.15
2017-09-24T04:26:10.447Z,1016.12
2017-09-24T04:26:50.980Z,1016.12
2017-09-24T04:27:31.509Z,1016.12
2017-09-24T04:28:12.034Z,1016.12
2017-09-24T04:28:52.567Z,1016.13
2017-09-24T04:29:33.116Z,1016.1
2017-09-24T04:30:13.648Z,1016.13
2017-09-24T04:30:54.176Z,1016.11
2017-09-24T04:31:34.706Z,1016.14
2017-09-24T04:32:15.241Z,1016.15
2017-09-24T04:32:56.056Z,1016.1
2017-09-24T04:33:36.582Z,1016.14
2017-09-24T04:34:17.115Z,1016.1
2017-09-24T04:34:57.648Z,1016.1
2017-09-24T04:35:38.194Z,1016.07
2017-09-24T04:36:18.727Z,1016.06
2017-09-24T04:36:59.258Z,1016.11
2017-09-24T04:37:39.785Z,1016.14
2017-09-24T04:38:20.319Z,1016.14
2017-09-24T04:39:00.844Z,1016.1
2017-09-24T04:39:41.381Z,1016.15
2017-09-24T04:40:21.915Z,1016.13
2017-09-24T04:41:02.435Z,1016.12
2017-09-24T04:41:42.985Z,1016.18
2017-09-24T04:42:23.558Z,1016.13
2017-09-24T04:43:04.089Z,1016.14
2017-09-24T04:43:44.624Z,1016.13
2017-09-24T04:44:25.154Z,1016.19
2017-09-24T04:45:05.693Z,1016.15
2017-09-24T04:45:46.228Z,1016.18
2017-09-24T04:46:26.768Z,1016.16
2017-09-24T04:47:07.294Z,1016.19
2017-09-24T04:47:47.824Z,1016.17
2017-09-24T04:48:28.361Z,1016.2
2017-09-24T04:49:08.901Z,1016.13
2017-09-24T04:49:49.429Z,1016.16
2017-09-24T04:50:29.966Z,1016.17
2017-09-24T04:51:10.497Z,1016.17
2017-09-24T04:51:51.029Z,1016.16
2017-09-24T04:52:31.565Z,1016.18
2017-09-24T04:53:12.106Z,1016.17
2017-09-24T04:53:52.646Z,1016.18
2017-09-24T04:54:33.192Z,1016.16
2017-09-24T04:55:13.791Z,1016.14
2017-09-24T04:55:54.386Z,1016.09
2017-09-24T04:56:34.931Z,1016.11
2017-09-24T04:57:15.462Z,1016.09
2017-09-24T04:57:55.982Z,1016.13
2017-09-24T04:58:36.514Z,1016.07
2017-09-24T04:59:17.042Z,1016.12
2017-09-24T04:59:57.574Z,1016.1
2017-09-24T05:00:38.106Z,1016.11
2017-09-24T05:01:18.647Z,1016.12
2017-09-24T05:01:59.185Z,1016.09
2017-09-24T05:02:39.964Z,1016.14
2017-09-24T05:03:20.512Z,1016.11
2017-09-24T05:04:01.040Z,1016.14
2017-09-24T05:04:41.570Z,1016.14
2017-09-24T05:05:22.098Z,1016.17
2017-09-24T05:06:02.633Z,1016.14
2017-09-24T05:06:43.170Z,1016.12
2017-09-24T05:07:23.709Z,1016.17
2017-09-24T05:08:04.238Z,1016.13
2017-09-24T05:08:44.770Z,1016.14
2017-09-24T05:09:25.310Z,1016.15
2017-09-24T05:10:05.842Z,1016.15
2017-09-24T05:10:46.368Z,1016.08
2017-09-24T05:11:26.903Z,1016.11
2017-09-24T05:13:56.615Z,1016.09
2017-09-24T05:14:37.155Z,1016.11
2017-09-24T05:15:17.692Z,1016.11
2017-09-24T05:15:58.223Z,1016.08
2017-09-24T05:16:38.754Z,1016.06
2017-09-24T05:17:19.286Z,1016.09
2017-09-24T05:17:59.814Z,1016.11
2017-09-24T05:18:40.345Z,1016.11
2017-09-24T05:19:20.880Z,1016.12
2017-09-24T05:20:01.412Z,1016.15
2017-09-24T05:20:41.942Z,1016.2
2017-09-24T05:21:23.064Z,1016.18
2017-09-24T05:22:03.434Z,1016.18
2017-09-24T05:22:43.964Z,1016.2
2017-09-24T05:23:24.494Z,1016.23
2017-09-24T05:24:05.033Z,1016.27
2017-09-24T05:24:45.561Z,1016.28
2017-09-24T05:25:26.090Z,1016.32
2017-09-24T05:26:06.641Z,1016.28
2017-09-24T05:26:47.175Z,1016.29
2017-09-24T05:27:27.712Z,1016.29
2017-09-24T05:28:08.249Z,1016.33
2017-09-24T05:28:48.772Z,1016.33
2017-09-24T05:29:29.300Z,1016.31
2017-09-24T05:30:09.883Z,1016.37
2017-09-24T05:30:50.505Z,1016.32
2017-09-24T05:31:31.120Z,1016.33
2017-09-24T05:32:11.674Z,1016.34
2017-09-24T05:32:52.192Z,1016.34
2017-09-24T05:33:32.730Z,1016.31
2017-09-24T05:34:13.312Z,1016.3
2017-09-24T05:34:53.959Z,1016.33
2017-09-24T05:35:34.718Z,1016.36
2017-09-24T05:36:15.415Z,1016.35
2017-09-24T05:36:55.955Z,1016.33
2017-09-24T05:37:36.555Z,1016.35
2017-09-24T05:38:17.032Z,1016.37
2017-09-24T05:38:57.559Z,1016.4
2017-09-24T05:39:38.210Z,1016.4
2017-09-24T05:40:18.842Z,1016.41
2017-09-24T05:40:59.556Z,1016.44
2017-09-24T05:41:40.071Z,1016.44
2017-09-24T05:42:20.596Z,1016.42
2017-09-24T05:43:01.279Z,1016.42
2017-09-24T05:43:41.824Z,1016.45
2017-09-24T05:44:22.349Z,1016.45
2017-09-24T05:45:03.151Z,1016.44
2017-09-24T05:45:43.809Z,1016.47
2017-09-24T05:46:24.390Z,1016.46
2017-09-24T05:47:04.915Z,1016.47
2017-09-24T05:47:45.507Z,1016.47
2017-09-24T05:48:26.038Z,1016.49
2017-09-24T05:49:06.578Z,1016.48
2017-09-24T05:49:47.347Z,1016.53
2017-09-24T05:50:27.903Z,1016.49
2017-09-24T05:51:08.434Z,1016.55
2017-09-24T05:51:49.000Z,1016.55
2017-09-24T05:52:29.787Z,1016.57
2017-09-24T05:53:10.304Z,1016.58
2017-09-24T05:53:51.001Z,1016.61
2017-09-24T05:54:31.457Z,1016.62
2017-09-24T05:55:12.027Z,1016.59
2017-09-24T05:55:52.561Z,1016.62
2017-09-24T05:56:33.064Z,1016.63
2017-09-24T05:57:13.670Z,1016.64
2017-09-24T05:57:54.324Z,1016.64
2017-09-24T05:58:34.812Z,1016.64
2017-09-24T05:59:15.310Z,1016.62
2017-09-24T05:59:55.814Z,1016.63
2017-09-24T06:00:36.417Z,1016.65
2017-09-24T06:01:16.943Z,1016.63
2017-09-24T06:01:57.462Z,1016.62
2017-09-24T06:02:37.984Z,1016.6
2017-09-24T06:03:18.544Z,1016.58
2017-09-24T06:03:59.108Z,1016.58
2017-09-24T06:04:39.669Z,1016.57
2017-09-24T06:05:20.206Z,1016.6
2017-09-24T06:06:00.700Z,1016.61
2017-09-24T06:06:41.300Z,1016.62
2017-09-24T06:07:21.992Z,1016.66
2017-09-24T06:08:02.660Z,1016.62
2017-09-24T06:08:43.163Z,1016.62
2017-09-24T06:09:23.671Z,1016.6
2017-09-24T06:10:04.254Z,1016.56
2017-09-24T06:10:44.805Z,1016.57
2017-09-24T06:11:26.043Z,1016.54
2017-09-24T06:12:08.831Z,1016.58
2017-09-24T06:12:50.257Z,1016.6
2017-09-24T06:13:30.777Z,1016.58
2017-09-24T06:14:11.313Z,1016.61
2017-09-24T06:14:51.843Z,1016.59
2017-09-24T06:15:32.375Z,1016.6
2017-09-24T06:16:12.921Z,1016.62
2017-09-24T06:16:53.453Z,1016.62
2017-09-24T06:17:33.988Z,1016.6
2017-09-24T06:18:14.584Z,1016.64
2017-09-24T06:18:55.109Z,1016.58
2017-09-24T06:19:35.641Z,1016.62
2017-09-24T06:20:16.175Z,1016.63
2017-09-24T06:20:56.703Z,1016.64
2017-09-24T06:21:37.233Z,1016.65
2017-09-24T06:22:17.771Z,1016.66
2017-09-24T06:22:58.308Z,1016.63
2017-09-24T06:23:38.838Z,1016.63
2017-09-24T06:24:21.150Z,1016.65
2017-09-24T06:25:01.682Z,1016.68
2017-09-24T06:25:42.199Z,1016.65
2017-09-24T06:26:22.730Z,1016.67
2017-09-24T06:27:03.242Z,1016.69
2017-09-24T06:27:43.756Z,1016.72
2017-09-24T06:28:24.293Z,1016.68
2017-09-24T06:29:04.823Z,1016.7
2017-09-24T06:29:45.359Z,1016.72
2017-09-24T06:30:25.896Z,1016.72
2017-09-24T06:31:06.439Z,1016.71
2017-09-24T06:31:46.975Z,1016.74
2017-09-24T06:32:27.497Z,1016.69
2017-09-24T06:33:08.035Z,1016.73
2017-09-24T06:33:48.576Z,1016.7
2017-09-24T06:34:29.102Z,1016.72
2017-09-24T06:35:09.633Z,1016.7
2017-09-24T06:35:50.155Z,1016.71
2017-09-24T06:36:30.691Z,1016.71
2017-09-24T06:37:11.218Z,1016.73
2017-09-24T06:37:51.757Z,1016.73
2017-09-24T06:38:32.284Z,1016.71
2017-09-24T06:39:12.822Z,1016.75
2017-09-24T06:39:53.355Z,1016.76
2017-09-24T06:40:33.886Z,1016.78
2017-09-24T06:41:14.424Z,1016.78
2017-09-24T06:41:54.960Z,1016.78
2017-09-24T06:42:35.506Z,1016.83
2017-09-24T06:43:16.038Z,1016.85
2017-09-24T06:43:56.565Z,1016.86
2017-09-24T06:44:37.094Z,1016.84
2017-09-24T06:45:17.628Z,1016.84
2017-09-24T06:45:58.161Z,1016.84
2017-09-24T06:46:38.688Z,1016.84
2017-09-24T06:47:19.320Z,1016.83
2017-09-24T06:47:59.826Z,1016.84
2017-09-24T06:48:40.349Z,1016.84
2017-09-24T06:49:20.861Z,1016.85
2017-09-24T06:50:01.392Z,1016.84
2017-09-24T06:50:42.047Z,1016.86
2017-09-24T06:51:22.574Z,1016.85
2017-09-24T06:52:03.098Z,1016.85
2017-09-24T06:52:43.635Z,1016.83
2017-09-24T06:53:24.170Z,1016.82
2017-09-24T06:54:04.695Z,1016.82
2017-09-24T06:54:45.227Z,1016.84
2017-09-24T06:55:25.750Z,1016.77
2017-09-24T06:56:06.269Z,1016.77
2017-09-24T06:56:46.776Z,1016.8
2017-09-24T06:57:27.308Z,1016.77
2017-09-24T06:58:07.855Z,1016.79
2017-09-24T06:58:48.350Z,1016.81
2017-09-24T06:59:28.876Z,1016.8
2017-09-24T07:00:09.430Z,1016.78
2017-09-24T07:00:49.932Z,1016.79
2017-09-24T07:01:30.490Z,1016.81
2017-09-24T07:02:11.023Z,1016.79
2017-09-24T07:02:51.553Z,1016.79
2017-09-24T07:03:32.085Z,1016.81
2017-09-24T07:04:12.613Z,1016.84
2017-09-24T07:04:53.149Z,1016.82
2017-09-24T07:05:33.662Z,1016.84
2017-09-24T07:06:14.189Z,1016.84
2017-09-24T07:06:54.733Z,1016.83
2017-09-24T07:07:35.267Z,1016.86
2017-09-24T07:08:15.807Z,1016.87
2017-09-24T07:08:56.345Z,1016.88
2017-09-24T07:09:36.879Z,1016.87
2017-09-24T07:10:17.407Z,1016.87
2017-09-24T07:10:57.932Z,1016.85
2017-09-24T07:11:38.462Z,1016.87
2017-09-24T07:12:19.001Z,1016.83
2017-09-24T07:12:59.529Z,1016.84
2017-09-24T07:13:40.064Z,1016.9
2017-09-24T07:14:20.618Z,1016.87
2017-09-24T07:15:01.139Z,1016.89
2017-09-24T07:15:41.678Z,1016.9
2017-09-24T07:16:22.239Z,1016.91
2017-09-24T07:17:02.721Z,1016.91
2017-09-24T07:17:43.261Z,1016.95
2017-09-24T07:18:23.765Z,1016.98
2017-09-24T07:19:04.286Z,1016.98
2017-09-24T07:19:44.822Z,1016.98
2017-09-24T07:20:25.473Z,1017
2017-09-24T07:21:06.014Z,1016.99
2017-09-24T07:21:46.542Z,1016.93
2017-09-24T07:22:27.080Z,1016.92
2017-09-24T07:23:07.621Z,1016.93
2017-09-24T07:23:48.150Z,1016.92
2017-09-24T07:24:28.683Z,1016.91
2017-09-24T07:25:09.196Z,1016.92
2017-09-24T07:25:49.727Z,1016.91
2017-09-24T07:26:30.270Z,1016.87
2017-09-24T07:27:10.789Z,1016.86
2017-09-24T07:27:51.491Z,1016.9
2017-09-24T07:28:31.829Z,1016.87
2017-09-24T07:29:12.362Z,1016.89
2017-09-24T07:29:52.931Z,1016.91
2017-09-24T07:30:33.467Z,1016.89
2017-09-24T07:31:14.052Z,1016.92
2017-09-24T07:31:54.584Z,1016.91
2017-09-24T07:32:35.130Z,1016.9
2017-09-24T07:33:15.672Z,1016.89
2017-09-24T07:33:56.191Z,1016.9
2017-09-24T07:34:36.725Z,1016.91
2017-09-24T07:35:17.256Z,1016.92
2017-09-24T07:35:57.807Z,1016.89
2017-09-24T07:36:38.332Z,1016.88
2017-09-24T07:37:18.833Z,1016.93
2017-09-24T07:37:59.335Z,1016.89
2017-09-24T07:38:39.843Z,1016.91
2017-09-24T07:39:20.360Z,1016.93
2017-09-24T07:40:00.873Z,1016.95
2017-09-24T07:40:41.403Z,1016.93
2017-09-24T07:41:21.927Z,1016.97
2017-09-24T07:42:02.448Z,1016.93
2017-09-24T07:42:42.992Z,1016.95
2017-09-24T07:43:23.535Z,1016.92
2017-09-24T07:44:04.048Z,1016.98
2017-09-24T07:44:44.566Z,1016.95
2017-09-24T07:45:25.096Z,1017.01
2017-09-24T07:46:05.603Z,1016.99
2017-09-24T07:46:46.142Z,1016.99
2017-09-24T07:47:26.803Z,1016.99
2017-09-24T07:48:07.326Z,1016.99
2017-09-24T07:48:47.847Z,1017.01
2017-09-24T07:49:28.339Z,1017.02
2017-09-24T07:50:08.865Z,1017.04
2017-09-24T07:50:49.450Z,1017.02
2017-09-24T07:51:29.977Z,1017.05
2017-09-24T07:52:10.506Z,1016.96
2017-09-24T07:52:51.028Z,1017.01
2017-09-24T07:53:31.541Z,1016.97
2017-09-24T07:54:12.151Z,1017
2017-09-24T07:54:52.672Z,1016.98
2017-09-24T07:55:33.194Z,1016.95
2017-09-24T07:56:13.723Z,1016.95
2017-09-24T07:56:54.247Z,1016.93
2017-09-24T07:57:34.770Z,1016.93
2017-09-24T07:58:15.316Z,1016.91
2017-09-24T07:58:55.829Z,1016.93
2017-09-24T08:01:25.261Z,1016.93
2017-09-24T08:02:05.792Z,1016.96
2017-09-24T08:02:46.327Z,1016.98
2017-09-24T08:03:26.861Z,1016.98
2017-09-24T08:04:07.404Z,1016.98
2017-09-24T08:04:47.937Z,1016.95
2017-09-24T08:05:28.469Z,1017
2017-09-24T08:06:09.001Z,1016.98
2017-09-24T08:06:49.540Z,1016.99
2017-09-24T08:07:30.075Z,1016.98
2017-09-24T08:08:10.627Z,1016.98
2017-09-24T08:08:51.163Z,1016.98
2017-09-24T08:09:31.691Z,1016.97
2017-09-24T08:10:12.710Z,1016.99
2017-09-24T08:10:53.400Z,1016.98
2017-09-24T08:11:33.976Z,1016.97
2017-09-24T08:12:14.572Z,1016.96
2017-09-24T08:12:55.104Z,1016.98
2017-09-24T08:13:35.626Z,1016.96
2017-09-24T08:14:19.355Z,1017
2017-09-24T08:15:09.192Z,1016.99
2017-09-24T08:15:49.749Z,1016.98
2017-09-24T08:16:30.253Z,1017
2017-09-24T08:17:11.104Z,1017.01
2017-09-24T08:17:51.763Z,1017
2017-09-24T08:18:33.034Z,1017
2017-09-24T08:20:33.628Z,1017.02